createdAt,value
2022-10-25T00:00:39.119Z,100722.81
2022-10-25T00:05:54.153Z,100732.47
2022-10-25T00:11:09.143Z,100724.34
2022-10-25T00:16:24.183Z,100730.44
2022-10-25T00:21:39.162Z,100742.59
2022-10-25T00:26:54.209Z,100738.28
2022-10-25T00:32:10.483Z,100741.06
2022-10-25T00:37:26.505Z,100744.63
2022-10-25T00:42:42.221Z,100755.78
2022-10-25T00:47:57.469Z,100745.91
2022-10-25T00:53:13.133Z,100762.66
2022-10-25T00:58:28.482Z,100762.41
2022-10-25T01:03:44.227Z,100765.97
2022-10-25T01:08:59.451Z,100770.25
2022-10-25T01:14:15.492Z,100766.72
2022-10-25T01:19:31.293Z,100768.97
2022-10-25T01:24:46.202Z,100786.47
2022-10-25T01:30:01.140Z,100778.84
2022-10-25T01:35:16.479Z,100782.41
2022-10-25T01:40:32.484Z,100787.44
2022-10-25T01:45:48.123Z,100790.25
2022-10-25T01:51:03.138Z,100790.97
2022-10-25T01:56:18.229Z,100786.13
2022-10-25T02:01:33.318Z,100782.59
2022-10-25T02:06:49.103Z,100795.25
2022-10-25T02:12:04.134Z,100793.22
2022-10-25T02:17:19.143Z,100791.72
2022-10-25T02:22:34.162Z,100787.66
2022-10-25T02:27:49.391Z,100793.22
2022-10-25T02:33:05.169Z,100787.66
2022-10-25T02:38:20.196Z,100791.19
2022-10-25T02:43:35.168Z,100803.13
2022-10-25T02:48:50.143Z,100800.34
2022-10-25T02:54:05.167Z,100798.81
2022-10-25T02:59:20.200Z,100807.94
2022-10-25T03:04:35.556Z,100817.09
2022-10-25T03:09:51.130Z,100817.84
2022-10-25T03:15:06.433Z,100821.34
2022-10-25T03:20:22.187Z,100837.78
2022-10-25T03:25:37.544Z,100834.25
2022-10-25T03:30:53.154Z,100834.59
2022-10-25T03:36:08.455Z,100844.56
2022-10-25T03:41:24.270Z,100855.53
2022-10-25T03:46:39.185Z,100866.69
2022-10-25T03:51:57.815Z,100877.59
2022-10-25T03:57:15.257Z,100878.69
2022-10-25T04:02:30.145Z,100877.19
2022-10-25T04:07:45.513Z,100885.31
2022-10-25T04:13:01.251Z,100895.53
2022-10-25T04:18:16.522Z,100881.13
2022-10-25T04:23:32.483Z,100905.72
2022-10-25T04:28:48.156Z,100907.00
2022-10-25T04:34:03.150Z,100907.00
2022-10-25T04:39:18.238Z,100902.69
2022-10-25T04:44:34.163Z,100925.53
2022-10-25T04:49:49.482Z,100927.38
2022-10-25T04:55:05.262Z,100920.28
2022-10-25T05:00:20.448Z,100927.13
2022-10-25T05:05:36.147Z,100934.00
2022-10-25T05:10:51.346Z,100925.63
2022-10-25T05:16:06.204Z,100938.06
2022-10-25T05:21:21.562Z,100935.06
2022-10-25T05:26:37.444Z,100949.56
2022-10-25T05:31:53.481Z,100957.16
2022-10-25T05:37:09.258Z,100955.66
2022-10-25T05:42:24.175Z,100957.69
2022-10-25T05:47:39.324Z,100965.84
2022-10-25T05:52:54.179Z,100976.22
2022-10-25T05:58:08.978Z,100961.56
2022-10-25T06:03:24.486Z,100965.63
2022-10-25T06:08:40.392Z,100966.91
2022-10-25T06:13:55.268Z,100980.09
2022-10-25T06:19:09.949Z,100993.28
2022-10-25T06:24:25.165Z,101001.66
2022-10-25T06:29:40.207Z,101004.44
2022-10-25T06:34:55.520Z,101020.41
2022-10-25T06:40:11.253Z,101023.19
2022-10-25T06:45:26.158Z,101028.34
2022-10-25T06:50:41.161Z,101034.16
2022-10-25T06:55:57.312Z,101041.00
2022-10-25T07:01:15.333Z,101045.81
2022-10-25T07:11:45.152Z,101062.56
2022-10-25T07:17:00.587Z,101063.09
2022-10-25T07:22:16.185Z,101059.56
2022-10-25T07:27:31.214Z,101067.16
2022-10-25T07:32:46.183Z,101077.56
2022-10-25T07:38:01.280Z,101083.16
2022-10-25T07:43:16.241Z,101081.63
2022-10-25T07:48:31.277Z,101084.44
2022-10-25T07:53:46.171Z,101080.88
2022-10-25T07:59:01.204Z,101087.44
2022-10-25T08:04:16.171Z,101097.34
2022-10-25T08:09:38.441Z,101100.88
2022-10-25T08:14:54.216Z,101115.56
2022-10-25T08:20:09.177Z,101108.50
2022-10-25T08:25:26.226Z,101117.38
2022-10-25T08:30:42.179Z,101117.38
2022-10-25T08:35:57.218Z,101120.16
2022-10-25T08:41:12.182Z,101135.63
2022-10-25T08:46:27.497Z,101134.88
2022-10-25T08:51:43.484Z,101144.00
2022-10-25T08:57:14.667Z,101144.75
2022-10-25T09:02:30.352Z,101153.66
2022-10-25T09:07:46.450Z,101155.44
2022-10-25T09:13:04.810Z,101163.06
2022-10-25T09:18:23.169Z,101174.72
2022-10-25T09:23:38.490Z,101179.78
2022-10-25T09:28:54.213Z,101181.06
2022-10-25T09:34:09.506Z,101189.44
2022-10-25T09:39:25.507Z,101192.22
2022-10-25T09:44:41.006Z,101185.16
2022-10-25T09:49:56.239Z,101187.94
2022-10-25T09:55:11.182Z,101190.72
2022-10-25T10:00:26.229Z,101189.22
2022-10-25T10:05:41.214Z,101196.81
2022-10-25T10:10:56.201Z,101202.41
2022-10-25T10:16:11.200Z,101207.22
2022-10-25T10:21:26.216Z,101201.66
2022-10-25T10:26:41.171Z,101214.84
2022-10-25T10:31:56.210Z,101216.84
2022-10-25T10:37:11.192Z,101212.03
2022-10-25T10:42:26.306Z,101214.84
2022-10-25T10:47:41.517Z,101220.66
2022-10-25T10:52:59.753Z,101222.63
2022-10-25T10:58:16.484Z,101228.44
2022-10-25T11:03:32.180Z,101227.16
2022-10-25T11:08:47.528Z,101216.75
2022-10-25T11:14:03.553Z,101232.41
2022-10-25T11:19:19.216Z,101232.41
2022-10-25T11:24:34.499Z,101244.59
2022-10-25T11:29:50.500Z,101250.19
2022-10-25T11:35:06.528Z,101250.19
2022-10-25T11:40:22.225Z,101249.44
2022-10-25T11:45:37.205Z,101246.63
2022-10-25T11:50:52.195Z,101245.88
2022-10-25T11:56:07.187Z,101239.78
2022-10-25T12:01:22.537Z,101237.44
2022-10-25T12:06:38.214Z,101247.56
2022-10-25T12:11:53.201Z,101249.06
2022-10-25T12:17:08.530Z,101237.38
2022-10-25T12:22:24.201Z,101242.44
2022-10-25T12:27:39.588Z,101243.97
2022-10-25T12:32:55.212Z,101234.31
2022-10-25T12:38:10.569Z,101240.84
2022-10-25T12:43:26.192Z,101238.81
2022-10-25T12:48:41.192Z,101238.81
2022-10-25T12:53:56.233Z,101239.13
2022-10-25T12:59:11.245Z,101239.81
2022-10-25T13:04:26.246Z,101236.28
2022-10-25T13:09:41.447Z,101228.16
2022-10-25T13:14:57.204Z,101238.03
2022-10-25T13:20:12.273Z,101234.69
2022-10-25T13:25:27.216Z,101238.25
2022-10-25T13:30:42.288Z,101244.59
2022-10-25T13:35:57.277Z,101245.34
2022-10-25T13:41:12.192Z,101245.34
2022-10-25T13:46:27.205Z,101244.59
2022-10-25T13:51:42.501Z,101241.78
2022-10-25T13:56:58.535Z,101235.44
2022-10-25T14:02:14.271Z,101236.00
2022-10-25T14:07:29.215Z,101232.66
2022-10-25T14:12:44.262Z,101227.84
2022-10-25T14:17:59.200Z,101237.19
2022-10-25T14:23:14.257Z,101228.09
2022-10-25T14:28:29.056Z,101229.34
2022-10-25T14:33:44.622Z,101216.66
2022-10-25T14:39:00.215Z,101217.22
2022-10-25T14:44:15.274Z,101219.78
2022-10-25T14:49:30.220Z,101207.09
2022-10-25T14:54:45.272Z,101200.00
2022-10-25T15:00:00.554Z,101200.50
2022-10-25T15:05:16.279Z,101203.81
2022-10-25T15:10:31.224Z,101207.91
2022-10-25T15:15:46.476Z,101203.63
2022-10-25T15:21:02.022Z,101197.28
2022-10-25T15:26:17.217Z,101192.44
2022-10-25T15:31:32.165Z,101188.91
2022-10-25T15:36:47.222Z,101174.72
2022-10-25T15:42:02.219Z,101185.88
2022-10-25T15:47:17.215Z,101181.06
2022-10-25T15:52:32.316Z,101187.41
2022-10-25T15:57:47.590Z,101193.72
2022-10-25T16:03:03.270Z,101192.22
2022-10-25T16:13:50.019Z,101171.41
2022-10-25T16:19:05.244Z,101177.75
2022-10-25T16:24:20.015Z,101163.78
2022-10-25T16:29:34.991Z,101172.16
2022-10-25T16:34:50.274Z,101180.53
2022-10-25T16:40:05.233Z,101172.16
2022-10-25T16:45:20.214Z,101184.59
2022-10-25T16:50:35.221Z,101189.44
2022-10-25T16:55:49.967Z,101198.56
2022-10-25T17:01:05.407Z,101197.81
2022-10-25T17:06:41.366Z,101195.00
2022-10-25T17:11:56.590Z,101190.94
2022-10-25T17:17:12.252Z,101191.47
2022-10-25T17:22:27.215Z,101196.28
2022-10-25T17:27:42.241Z,101187.91
2022-10-25T17:32:57.231Z,101189.19
2022-10-25T17:38:50.247Z,101182.09
2022-10-25T17:44:05.260Z,101186.94
2022-10-25T17:49:20.200Z,101183.59
2022-10-25T17:54:35.214Z,101187.66
2022-10-25T17:59:50.676Z,101182.09
2022-10-25T18:05:19.939Z,101179.31
2022-10-25T18:10:36.730Z,101177.81
2022-10-25T18:15:52.229Z,101188.97
2022-10-25T18:21:07.301Z,101192.53
2022-10-25T18:26:22.267Z,101179.09
2022-10-25T18:31:37.017Z,101184.66
2022-10-25T18:36:52.552Z,101181.88
2022-10-25T18:42:08.244Z,101188.75
2022-10-25T18:47:23.255Z,101195.06
2022-10-25T18:52:38.280Z,101197.88
2022-10-25T18:57:53.238Z,101192.81
2022-10-25T19:03:08.222Z,101194.31
2022-10-25T19:08:23.618Z,101193.56
2022-10-25T19:13:39.238Z,101190.00
2022-10-25T19:18:54.223Z,101178.09
2022-10-25T19:24:09.301Z,101166.66
2022-10-25T19:29:24.258Z,101160.25
2022-10-25T19:34:39.650Z,101151.34
2022-10-25T19:39:58.181Z,101153.38
2022-10-25T19:45:14.262Z,101155.66
2022-10-25T19:50:29.271Z,101159.19
2022-10-25T19:55:44.219Z,101150.28
2022-10-25T20:00:59.287Z,101154.59
2022-10-25T20:06:15.082Z,101142.91
2022-10-25T20:11:30.305Z,101145.19
2022-10-25T20:16:45.993Z,101145.94
2022-10-25T20:22:01.296Z,101136.50
2022-10-25T20:27:17.452Z,101133.94
2022-10-25T20:32:33.614Z,101141.03
2022-10-25T20:37:49.551Z,101139.75
2022-10-25T20:43:05.228Z,101132.13
2022-10-25T20:48:20.257Z,101136.97
2022-10-25T20:53:35.285Z,101145.34
2022-10-25T20:58:50.238Z,101140.50
2022-10-25T21:04:05.253Z,101142.75
2022-10-25T21:09:20.225Z,101137.16
2022-10-25T21:14:35.634Z,101135.13
2022-10-25T21:19:51.304Z,101136.66
2022-10-25T21:25:06.284Z,101122.69
2022-10-25T21:30:21.555Z,101119.91
2022-10-25T21:35:37.234Z,101118.66
2022-10-25T21:40:52.248Z,101114.31
2022-10-25T21:46:07.231Z,101113.78
2022-10-25T21:51:22.564Z,101117.34
2022-10-25T21:56:38.217Z,101114.56
2022-10-25T22:01:53.684Z,101122.94
2022-10-25T22:07:09.234Z,101111.00
2022-10-25T22:12:24.283Z,101113.28
2022-10-25T22:17:39.277Z,101112.50
2022-10-25T22:22:54.319Z,101105.41
2022-10-25T22:28:09.305Z,101107.47
2022-10-25T22:33:24.610Z,101099.59
2022-10-25T22:38:40.270Z,101103.69
2022-10-25T22:43:55.555Z,101101.44
2022-10-25T22:49:11.216Z,101081.44
2022-10-25T22:54:26.559Z,101085.00
2022-10-25T22:59:42.562Z,101096.16
2022-10-25T23:04:58.558Z,101089.03
2022-10-25T23:10:14.537Z,101094.63
2022-10-25T23:15:30.261Z,101093.88
2022-10-25T23:20:45.241Z,101086.78
2022-10-25T23:26:00.333Z,101092.91
2022-10-25T23:31:15.250Z,101089.38
2022-10-25T23:36:30.270Z,101096.22
2022-10-25T23:41:45.570Z,101091.16
2022-10-25T23:47:01.236Z,101086.34
2022-10-25T23:52:16.552Z,101079.25
2022-10-25T23:57:32.229Z,101070.13
